sensor_id;sensor_type;location;lat;lon;timestamp;pressure;altitude;pressure_sealevel;temperature;humidity
36692;BME280;22678;52.052;4.242;2024-02-14T00:02:06;101215.00;;;8.70;100.00
36692;BME280;22678;52.052;4.242;2024-02-14T00:04:31;101206.25;;;8.65;100.00
36692;BME280;22678;52.052;4.242;2024-02-14T00:06:57;101209.78;;;8.70;100.00
36692;BME280;22678;52.052;4.242;2024-02-14T00:09:22;101201.03;;;8.68;100.00
36692;BME280;22678;52.052;4.242;2024-02-14T00:11:47;101201.91;;;8.70;100.00
36692;BME280;22678;52.052;4.242;2024-02-14T00:14:13;101194.94;;;8.73;100.00
36692;BME280;22678;52.052;4.242;2024-02-14T00:16:39;101182.63;;;8.58;100.00
36692;BME280;22678;52.052;4.242;2024-02-14T00:19:04;101196.72;;;8.77;100.00
36692;BME280;22678;52.052;4.242;2024-02-14T00:21:30;101207.25;;;8.87;100.00
36692;BME280;22678;52.052;4.242;2024-02-14T00:23:57;101192.38;;;8.90;100.00
36692;BME280;22678;52.052;4.242;2024-02-14T00:26:23;101194.13;;;8.87;100.00
36692;BME280;22678;52.052;4.242;2024-02-14T00:28:49;101213.38;;;8.93;100.00
36692;BME280;22678;52.052;4.242;2024-02-14T00:31:14;101188.03;;;8.92;100.00
36692;BME280;22678;52.052;4.242;2024-02-14T00:33:40;101197.69;;;9.00;100.00
36692;BME280;22678;52.052;4.242;2024-02-14T00:36:06;101195.09;;;9.04;100.00
36692;BME280;22678;52.052;4.242;2024-02-14T00:38:32;101209.97;;;9.10;100.00
36692;BME280;22678;52.052;4.242;2024-02-14T00:40:57;101195.09;;;9.06;100.00
36692;BME280;22678;52.052;4.242;2024-02-14T00:43:23;101189.84;;;9.09;100.00
36692;BME280;22678;52.052;4.242;2024-02-14T00:45:48;101207.38;;;9.13;100.00
36692;BME280;22678;52.052;4.242;2024-02-14T00:48:13;101198.63;;;9.17;100.00
36692;BME280;22678;52.052;4.242;2024-02-14T00:50:39;101198.63;;;9.17;100.00
36692;BME280;22678;52.052;4.242;2024-02-14T00:53:04;101201.22;;;9.16;100.00
36692;BME280;22678;52.052;4.242;2024-02-14T00:55:30;101222.25;;;9.20;100.00
36692;BME280;22678;52.052;4.242;2024-02-14T00:57:55;101215.28;;;9.28;100.00
36692;BME280;22678;52.052;4.242;2024-02-14T01:00:20;101208.25;;;9.27;100.00
36692;BME280;22678;52.052;4.242;2024-02-14T01:02:46;101197.75;;;9.24;100.00
36692;BME280;22678;52.052;4.242;2024-02-14T01:05:11;101208.31;;;9.37;100.00
36692;BME280;22678;52.052;4.242;2024-02-14T01:07:36;101209.16;;;9.33;100.00
36692;BME280;22678;52.052;4.242;2024-02-14T01:10:02;101219.69;;;9.39;100.00
36692;BME280;22678;52.052;4.242;2024-02-14T01:12:28;101215.28;;;9.38;100.00
36692;BME280;22678;52.052;4.242;2024-02-14T01:14:57;101222.31;;;9.45;100.00
36692;BME280;22678;52.052;4.242;2024-02-14T01:17:22;101219.69;;;9.43;100.00
36692;BME280;22678;52.052;4.242;2024-02-14T01:19:47;101219.69;;;9.48;100.00
36692;BME280;22678;52.052;4.242;2024-02-14T01:22:14;101224.06;;;9.49;100.00
36692;BME280;22678;52.052;4.242;2024-02-14T01:24:44;101224.09;;;9.58;100.00
36692;BME280;22678;52.052;4.242;2024-02-14T01:27:10;101221.47;;;9.58;100.00
36692;BME280;22678;52.052;4.242;2024-02-14T01:29:35;101217.97;;;9.55;100.00
36692;BME280;22678;52.052;4.242;2024-02-14T01:32:00;101212.72;;;9.53;100.00
36692;BME280;22678;52.052;4.242;2024-02-14T01:34:26;101234.63;;;9.61;100.00
36692;BME280;22678;52.052;4.242;2024-02-14T01:36:53;101215.34;;;9.55;100.00
36692;BME280;22678;52.052;4.242;2024-02-14T01:39:19;101241.59;;;9.62;100.00
36692;BME280;22678;52.052;4.242;2024-02-14T01:41:47;101232.00;;;9.64;100.00
36692;BME280;22678;52.052;4.242;2024-02-14T01:44:17;101227.63;;;9.60;100.00
36692;BME280;22678;52.052;4.242;2024-02-14T01:46:43;101241.59;;;9.65;100.00
36692;BME280;22678;52.052;4.242;2024-02-14T01:49:09;101218.84;;;9.58;100.00
36692;BME280;22678;52.052;4.242;2024-02-14T01:51:37;101233.72;;;9.61;100.00
36692;BME280;22678;52.052;4.242;2024-02-14T01:54:04;101246.91;;;9.70;100.00
36692;BME280;22678;52.052;4.242;2024-02-14T01:56:30;101243.38;;;9.63;100.00
36692;BME280;22678;52.052;4.242;2024-02-14T01:58:56;101232.00;;;9.64;100.00
36692;BME280;22678;52.052;4.242;2024-02-14T02:01:22;101246.91;;;9.75;100.00
36692;BME280;22678;52.052;4.242;2024-02-14T02:03:49;101236.38;;;9.69;100.00
36692;BME280;22678;52.052;4.242;2024-02-14T02:06:14;101255.66;;;9.74;100.00
36692;BME280;22678;52.052;4.242;2024-02-14T02:08:43;101259.13;;;9.77;100.00
36692;BME280;22678;52.052;4.242;2024-02-14T02:11:08;101253.03;;;9.80;100.00
36692;BME280;22678;52.052;4.242;2024-02-14T02:13:34;101252.16;;;9.78;100.00
36692;BME280;22678;52.052;4.242;2024-02-14T02:15:59;101246.91;;;9.81;100.00
36692;BME280;22678;52.052;4.242;2024-02-14T02:18:30;101259.13;;;9.79;100.00
36692;BME280;22678;52.052;4.242;2024-02-14T02:20:55;101248.63;;;9.77;100.00
36692;BME280;22678;52.052;4.242;2024-02-14T02:23:21;101266.16;;;9.81;100.00
36692;BME280;22678;52.052;4.242;2024-02-14T02:25:46;101260.03;;;9.79;100.00
36692;BME280;22678;52.052;4.242;2024-02-14T02:28:12;101267.91;;;9.81;100.00
36692;BME280;22678;52.052;4.242;2024-02-14T02:30:38;101278.41;;;9.78;100.00
36692;BME280;22678;52.052;4.242;2024-02-14T02:33:04;101272.28;;;9.79;100.00
36692;BME280;22678;52.052;4.242;2024-02-14T02:35:30;101272.31;;;9.84;100.00
36692;BME280;22678;52.052;4.242;2024-02-14T02:37:55;101283.69;;;9.84;100.00
36692;BME280;22678;52.052;4.242;2024-02-14T02:40:22;101266.16;;;9.74;100.00
36692;BME280;22678;52.052;4.242;2024-02-14T02:42:47;101270.56;;;9.82;100.00
36692;BME280;22678;52.052;4.242;2024-02-14T02:45:13;101256.50;;;9.73;100.00
36692;BME280;22678;52.052;4.242;2024-02-14T02:47:38;101253.88;;;9.76;100.00
36692;BME280;22678;52.052;4.242;2024-02-14T02:50:05;101276.66;;;9.80;100.00
36692;BME280;22678;52.052;4.242;2024-02-14T02:52:31;101269.69;;;9.82;100.00
36692;BME280;22678;52.052;4.242;2024-02-14T02:54:56;101278.44;;;9.81;100.00
36692;BME280;22678;52.052;4.242;2024-02-14T02:57:22;101276.66;;;9.86;100.00
36692;BME280;22678;52.052;4.242;2024-02-14T02:59:47;101276.66;;;9.77;100.00
36692;BME280;22678;52.052;4.242;2024-02-14T03:02:15;101287.19;;;9.83;100.00
36692;BME280;22678;52.052;4.242;2024-02-14T03:04:41;101278.44;;;9.81;100.00
36692;BME280;22678;52.052;4.242;2024-02-14T03:07:07;101296.81;;;9.84;100.00
36692;BME280;22678;52.052;4.242;2024-02-14T03:09:34;101289.81;;;9.83;100.00
36692;BME280;22678;52.052;4.242;2024-02-14T03:12:01;101295.94;;;9.85;100.00
36692;BME280;22678;52.052;4.242;2024-02-14T03:14:31;101291.56;;;9.90;100.00
36692;BME280;22678;52.052;4.242;2024-02-14T03:17:01;101307.31;;;9.89;100.00
36692;BME280;22678;52.052;4.242;2024-02-14T03:19:27;101292.44;;;9.83;100.00
36692;BME280;22678;52.052;4.242;2024-02-14T03:21:54;101294.19;;;9.81;100.00
36692;BME280;22678;52.052;4.242;2024-02-14T03:24:19;101297.69;;;9.83;100.00
36692;BME280;22678;52.052;4.242;2024-02-14T03:26:45;101295.06;;;9.83;100.00
36692;BME280;22678;52.052;4.242;2024-02-14T03:29:10;101292.44;;;9.83;100.00
36692;BME280;22678;52.052;4.242;2024-02-14T03:31:35;101309.09;;;9.87;100.00
36692;BME280;22678;52.052;4.242;2024-02-14T03:34:01;101303.84;;;9.87;100.00
36692;BME280;22678;52.052;4.242;2024-02-14T03:36:27;101295.94;;;9.82;100.00
36692;BME280;22678;52.052;4.242;2024-02-14T03:38:55;101317.84;;;9.92;100.00
36692;BME280;22678;52.052;4.242;2024-02-14T03:41:21;101298.59;;;9.88;100.00
36692;BME280;22678;52.052;4.242;2024-02-14T03:43:46;101303.84;;;9.87;100.00
36692;BME280;22678;52.052;4.242;2024-02-14T03:46:11;101317.84;;;9.92;100.00
36692;BME280;22678;52.052;4.242;2024-02-14T03:48:38;101310.81;;;9.88;100.00
36692;BME280;22678;52.052;4.242;2024-02-14T03:51:03;101312.59;;;9.87;100.00
36692;BME280;22678;52.052;4.242;2024-02-14T03:53:29;101304.69;;;9.84;100.00
36692;BME280;22678;52.052;4.242;2024-02-14T03:55:54;101323.09;;;9.96;100.00
36692;BME280;22678;52.052;4.242;2024-02-14T03:58:19;101309.09;;;9.88;100.00
36692;BME280;22678;52.052;4.242;2024-02-14T04:00:51;101325.72;;;9.99;100.00
36692;BME280;22678;52.052;4.242;2024-02-14T04:03:17;101313.44;;;9.89;100.00
36692;BME280;22678;52.052;4.242;2024-02-14T04:05:43;101317.84;;;9.92;100.00
36692;BME280;22678;52.052;4.242;2024-02-14T04:08:09;101315.22;;;9.90;100.00
36692;BME280;22678;52.052;4.242;2024-02-14T04:10:39;101327.50;;;9.97;100.00
36692;BME280;22678;52.052;4.242;2024-02-14T04:13:04;101318.75;;;9.95;100.00
36692;BME280;22678;52.052;4.242;2024-02-14T04:15:31;101343.25;;;10.04;100.00
36692;BME280;22678;52.052;4.242;2024-02-14T04:17:56;101331.88;;;9.95;100.00
36692;BME280;22678;52.052;4.242;2024-02-14T04:20:21;101337.13;;;9.97;100.00
36692;BME280;22678;52.052;4.242;2024-02-14T04:22:47;101320.47;;;9.92;100.00
36692;BME280;22678;52.052;4.242;2024-02-14T04:25:12;101348.53;;;10.04;100.00
36692;BME280;22678;52.052;4.242;2024-02-14T04:27:37;101335.38;;;9.94;100.00
36692;BME280;22678;52.052;4.242;2024-02-14T04:30:04;101332.75;;;9.93;100.00
36692;BME280;22678;52.052;4.242;2024-02-14T04:32:30;101335.38;;;9.97;100.00
36692;BME280;22678;52.052;4.242;2024-02-14T04:34:55;101337.13;;;9.97;100.00
36692;BME280;22678;52.052;4.242;2024-02-14T04:37:21;101338.88;;;10.01;100.00
36692;BME280;22678;52.052;4.242;2024-02-14T04:39:47;101348.53;;;10.05;100.00
36692;BME280;22678;52.052;4.242;2024-02-14T04:42:12;101359.03;;;9.97;100.00
36692;BME280;22678;52.052;4.242;2024-02-14T04:44:38;101352.91;;;9.97;100.00
36692;BME280;22678;52.052;4.242;2024-02-14T04:47:04;101359.03;;;10.04;100.00
36692;BME280;22678;52.052;4.242;2024-02-14T04:49:30;101371.31;;;10.05;100.00
36692;BME280;22678;52.052;4.242;2024-02-14T04:51:56;101369.53;;;10.07;100.00
36692;BME280;22678;52.052;4.242;2024-02-14T04:54:21;101366.91;;;10.07;100.00
36692;BME280;22678;52.052;4.242;2024-02-14T04:56:47;101366.91;;;10.05;100.00
36692;BME280;22678;52.052;4.242;2024-02-14T04:59:12;101354.66;;;10.03;100.00
36692;BME280;22678;52.052;4.242;2024-02-14T05:01:38;101359.94;;;10.10;100.00
36692;BME280;22678;52.052;4.242;2024-02-14T05:04:07;101355.53;;;10.05;100.00
36692;BME280;22678;52.052;4.242;2024-02-14T05:06:33;101349.41;;;10.12;100.00
36692;BME280;22678;52.052;4.242;2024-02-14T05:08:58;101363.44;;;10.18;100.00
36692;BME280;22678;52.052;4.242;2024-02-14T05:11:24;101346.78;;;10.15;100.00
36692;BME280;22678;52.052;4.242;2024-02-14T05:13:50;101359.06;;;10.22;100.00
36692;BME280;22678;52.052;4.242;2024-02-14T05:16:19;101360.81;;;10.15;100.00
36692;BME280;22678;52.052;4.242;2024-02-14T05:18:44;101371.34;;;10.23;100.00
36692;BME280;22678;52.052;4.242;2024-02-14T05:21:10;101359.94;;;10.24;100.00
36692;BME280;22678;52.052;4.242;2024-02-14T05:23:35;101365.19;;;10.27;100.00
36692;BME280;22678;52.052;4.242;2024-02-14T05:26:02;101364.34;;;10.28;100.00
36692;BME280;22678;52.052;4.242;2024-02-14T05:28:30;101373.16;;;10.33;100.00
36692;BME280;22678;52.052;4.242;2024-02-14T05:30:56;101378.41;;;10.33;100.00
36692;BME280;22678;52.052;4.242;2024-02-14T05:33:22;101373.97;;;10.29;100.00
36692;BME280;22678;52.052;4.242;2024-02-14T05:35:48;101367.84;;;10.30;100.00
36692;BME280;22678;52.052;4.242;2024-02-14T05:38:14;101374.03;;;10.34;100.00
36692;BME280;22678;52.052;4.242;2024-02-14T05:40:40;101359.09;;;10.28;100.00
36692;BME280;22678;52.052;4.242;2024-02-14T05:43:05;101362.56;;;10.27;100.00
36692;BME280;22678;52.052;4.242;2024-02-14T05:45:32;101382.78;;;10.38;100.00
36692;BME280;22678;52.052;4.242;2024-02-14T05:47:58;101374.03;;;10.34;100.00
36692;BME280;22678;52.052;4.242;2024-02-14T05:50:23;101394.19;;;10.40;100.00
36692;BME280;22678;52.052;4.242;2024-02-14T05:52:49;101380.16;;;10.34;100.00
36692;BME280;22678;52.052;4.242;2024-02-14T05:55:14;101380.09;;;10.31;100.00
36692;BME280;22678;52.052;4.242;2024-02-14T05:57:40;101388.00;;;10.33;100.00
36692;BME280;22678;52.052;4.242;2024-02-14T06:00:06;101381.91;;;10.37;100.00
36692;BME280;22678;52.052;4.242;2024-02-14T06:02:31;101394.19;;;10.46;100.00
36692;BME280;22678;52.052;4.242;2024-02-14T06:04:56;101374.88;;;10.34;100.00
36692;BME280;22678;52.052;4.242;2024-02-14T06:07:22;101382.81;;;10.45;100.00
36692;BME280;22678;52.052;4.242;2024-02-14T06:09:47;101399.44;;;10.52;100.00
36692;BME280;22678;52.052;4.242;2024-02-14T06:12:12;101395.97;;;10.50;100.00
36692;BME280;22678;52.052;4.242;2024-02-14T06:14:38;101392.44;;;10.49;100.00
36692;BME280;22678;52.052;4.242;2024-02-14T06:17:03;101369.63;;;10.38;100.00
36692;BME280;22678;52.052;4.242;2024-02-14T06:19:29;101404.72;;;10.52;100.00
36692;BME280;22678;52.052;4.242;2024-02-14T06:21:55;101387.16;;;10.45;100.00
36692;BME280;22678;52.052;4.242;2024-02-14T06:24:21;101393.31;;;10.47;100.00
36692;BME280;22678;52.052;4.242;2024-02-14T06:26:46;101396.81;;;10.49;100.00
36692;BME280;22678;52.052;4.242;2024-02-14T06:29:11;101390.69;;;10.47;100.00
36692;BME280;22678;52.052;4.242;2024-02-14T06:31:37;101393.31;;;10.48;100.00
36692;BME280;22678;52.052;4.242;2024-02-14T06:34:02;101401.22;;;10.51;100.00
36692;BME280;22678;52.052;4.242;2024-02-14T06:36:28;101408.19;;;10.52;100.00
36692;BME280;22678;52.052;4.242;2024-02-14T06:38:53;101397.69;;;10.49;100.00
36692;BME280;22678;52.052;4.242;2024-02-14T06:41:18;101395.06;;;10.46;100.00
36692;BME280;22678;52.052;4.242;2024-02-14T06:43:45;101394.19;;;10.49;100.00
36692;BME280;22678;52.052;4.242;2024-02-14T06:46:11;101402.09;;;10.52;100.00
36692;BME280;22678;52.052;4.242;2024-02-14T06:48:36;101404.72;;;10.55;100.00
36692;BME280;22678;52.052;4.242;2024-02-14T06:51:01;101401.22;;;10.56;100.00
36692;BME280;22678;52.052;4.242;2024-02-14T06:53:27;101387.16;;;10.45;100.00
36692;BME280;22678;52.052;4.242;2024-02-14T06:55:52;101397.69;;;10.51;100.00
36692;BME280;22678;52.052;4.242;2024-02-14T06:58:17;101404.72;;;10.52;100.00
36692;BME280;22678;52.052;4.242;2024-02-14T07:00:43;101400.31;;;10.52;100.00
36692;BME280;22678;52.052;4.242;2024-02-14T07:03:09;101402.97;;;10.54;100.00
36692;BME280;22678;52.052;4.242;2024-02-14T07:05:34;101396.81;;;10.43;100.00
36692;BME280;22678;52.052;4.242;2024-02-14T07:08:00;101402.94;;;10.48;100.00
36692;BME280;22678;52.052;4.242;2024-02-14T07:10:26;101406.47;;;10.50;100.00
36692;BME280;22678;52.052;4.242;2024-02-14T07:12:52;101421.38;;;10.57;100.00
36692;BME280;22678;52.052;4.242;2024-02-14T07:15:17;101417.00;;;10.53;100.00
36692;BME280;22678;52.052;4.242;2024-02-14T07:17:42;101424.88;;;10.56;100.00
36692;BME280;22678;52.052;4.242;2024-02-14T07:20:08;101418.75;;;10.57;100.00
36692;BME280;22678;52.052;4.242;2024-02-14T07:22:35;101425.75;;;10.58;100.00
36692;BME280;22678;52.052;4.242;2024-02-14T07:25:01;101425.75;;;10.61;100.00
36692;BME280;22678;52.052;4.242;2024-02-14T07:27:26;101420.50;;;10.54;100.00
36692;BME280;22678;52.052;4.242;2024-02-14T07:29:52;101414.38;;;10.50;100.00
36692;BME280;22678;52.052;4.242;2024-02-14T07:32:17;101438.91;;;10.64;100.00
36692;BME280;22678;52.052;4.242;2024-02-14T07:34:43;101425.75;;;10.58;100.00
36692;BME280;22678;52.052;4.242;2024-02-14T07:37:08;101420.50;;;10.58;100.00
36692;BME280;22678;52.052;4.242;2024-02-14T07:39:34;101434.53;;;10.69;100.00
36692;BME280;22678;52.052;4.242;2024-02-14T07:42:02;101446.81;;;10.74;100.00
36692;BME280;22678;52.052;4.242;2024-02-14T07:44:28;101444.19;;;10.71;100.00
36692;BME280;22678;52.052;4.242;2024-02-14T07:46:53;101445.06;;;10.66;100.00
36692;BME280;22678;52.052;4.242;2024-02-14T07:49:19;101448.56;;;10.72;100.00
36692;BME280;22678;52.052;4.242;2024-02-14T07:51:45;101453.84;;;10.78;100.00
36692;BME280;22678;52.052;4.242;2024-02-14T07:54:10;101459.09;;;10.78;100.00
36692;BME280;22678;52.052;4.242;2024-02-14T07:56:35;101448.56;;;10.72;100.00
36692;BME280;22678;52.052;4.242;2024-02-14T07:59:01;101444.19;;;10.72;100.00
36692;BME280;22678;52.052;4.242;2024-02-14T08:01:26;101438.03;;;10.70;100.00
36692;BME280;22678;52.052;4.242;2024-02-14T08:03:52;101455.59;;;10.74;100.00
36692;BME280;22678;52.052;4.242;2024-02-14T08:06:17;101452.94;;;10.73;100.00
36692;BME280;22678;52.052;4.242;2024-02-14T08:08:43;101453.81;;;10.72;100.00
36692;BME280;22678;52.052;4.242;2024-02-14T08:11:09;101456.47;;;10.79;100.00
36692;BME280;22678;52.052;4.242;2024-02-14T08:13:34;101456.47;;;10.79;100.00
36692;BME280;22678;52.052;4.242;2024-02-14T08:16:00;101459.09;;;10.78;100.00
36692;BME280;22678;52.052;4.242;2024-02-14T08:18:25;101444.19;;;10.71;100.00
36692;BME280;22678;52.052;4.242;2024-02-14T08:20:52;101476.63;;;10.79;100.00
36692;BME280;22678;52.052;4.242;2024-02-14T08:23:18;101466.97;;;10.73;100.00
36692;BME280;22678;52.052;4.242;2024-02-14T08:25:45;101469.59;;;10.72;100.00
36692;BME280;22678;52.052;4.242;2024-02-14T08:28:11;101481.03;;;10.78;100.00
36692;BME280;22678;52.052;4.242;2024-02-14T08:30:36;101484.53;;;10.79;100.00
36692;BME280;22678;52.052;4.242;2024-02-14T08:33:03;101471.38;;;10.69;100.00
36692;BME280;22678;52.052;4.242;2024-02-14T08:35:28;101480.13;;;10.75;100.00
36692;BME280;22678;52.052;4.242;2024-02-14T08:37:54;101477.50;;;10.73;100.00
36692;BME280;22678;52.052;4.242;2024-02-14T08:40:19;101476.63;;;10.69;100.00
36692;BME280;22678;52.052;4.242;2024-02-14T08:42:45;101474.84;;;10.68;100.00
36692;BME280;22678;52.052;4.242;2024-02-14T08:45:10;101474.88;;;10.70;100.00
36692;BME280;22678;52.052;4.242;2024-02-14T08:47:36;101479.25;;;10.66;100.00
36692;BME280;22678;52.052;4.242;2024-02-14T08:50:03;101481.88;;;10.69;100.00
36692;BME280;22678;52.052;4.242;2024-02-14T08:52:28;101490.63;;;10.68;100.00
36692;BME280;22678;52.052;4.242;2024-02-14T08:54:54;101492.41;;;10.73;100.00
36692;BME280;22678;52.052;4.242;2024-02-14T08:57:19;101490.63;;;10.67;100.00
36692;BME280;22678;52.052;4.242;2024-02-14T08:59:45;101494.16;;;10.69;100.00
36692;BME280;22678;52.052;4.242;2024-02-14T09:02:12;101496.81;;;10.69;100.00
36692;BME280;22678;52.052;4.242;2024-02-14T09:04:39;101491.53;;;10.72;100.00
36692;BME280;22678;52.052;4.242;2024-02-14T09:07:04;101495.91;;;10.72;100.00
36692;BME280;22678;52.052;4.242;2024-02-14T09:09:29;101505.56;;;10.74;100.00
36692;BME280;22678;52.052;4.242;2024-02-14T09:11:56;101488.00;;;10.62;100.00
36692;BME280;22678;52.052;4.242;2024-02-14T09:14:21;101498.56;;;10.78;100.00
36692;BME280;22678;52.052;4.242;2024-02-14T09:16:48;101478.38;;;10.71;100.00
36692;BME280;22678;52.052;4.242;2024-02-14T09:19:13;101502.94;;;10.82;100.00
36692;BME280;22678;52.052;4.242;2024-02-14T09:21:38;101494.19;;;10.74;100.00
36692;BME280;22678;52.052;4.242;2024-02-14T09:24:04;101503.84;;;10.82;100.00
36692;BME280;22678;52.052;4.242;2024-02-14T09:26:30;101506.47;;;10.87;100.00
36692;BME280;22678;52.052;4.242;2024-02-14T09:28:55;101516.13;;;10.88;100.00
36692;BME280;22678;52.052;4.242;2024-02-14T09:31:21;101501.22;;;10.85;100.00
36692;BME280;22678;52.052;4.242;2024-02-14T09:33:47;101488.91;;;10.80;100.00
36692;BME280;22678;52.052;4.242;2024-02-14T09:36:13;101501.22;;;10.90;100.00
36692;BME280;22678;52.052;4.242;2024-02-14T09:38:42;101497.69;;;10.85;100.00
36692;BME280;22678;52.052;4.242;2024-02-14T09:41:15;101504.69;;;10.92;100.00
36692;BME280;22678;52.052;4.242;2024-02-14T09:43:47;101490.69;;;10.87;100.00
36692;BME280;22678;52.052;4.242;2024-02-14T09:46:15;101495.94;;;10.90;100.00
36692;BME280;22678;52.052;4.242;2024-02-14T09:48:46;101509.09;;;10.95;100.00
36692;BME280;22678;52.052;4.242;2024-02-14T09:51:12;101505.59;;;10.86;100.00
36692;BME280;22678;52.052;4.242;2024-02-14T09:53:41;101496.81;;;10.86;100.00
36692;BME280;22678;52.052;4.242;2024-02-14T09:56:10;101518.75;;;10.97;100.00
36692;BME280;22678;52.052;4.242;2024-02-14T09:58:36;101502.97;;;10.88;100.00
36692;BME280;22678;52.052;4.242;2024-02-14T10:01:02;101504.69;;;10.92;100.00
36692;BME280;22678;52.052;4.242;2024-02-14T10:03:28;101502.97;;;10.94;100.00
36692;BME280;22678;52.052;4.242;2024-02-14T10:05:54;101491.53;;;10.91;100.00
36692;BME280;22678;52.052;4.242;2024-02-14T10:08:19;101508.22;;;11.00;100.00
36692;BME280;22678;52.052;4.242;2024-02-14T10:10:46;101511.72;;;10.93;100.00
36692;BME280;22678;52.052;4.242;2024-02-14T10:13:11;101503.84;;;10.92;100.00
36692;BME280;22678;52.052;4.242;2024-02-14T10:15:37;101502.06;;;10.94;100.00
36692;BME280;22678;52.052;4.242;2024-02-14T10:18:02;101503.84;;;10.98;100.00
36692;BME280;22678;52.052;4.242;2024-02-14T10:20:29;101513.50;;;11.00;100.00
36692;BME280;22678;52.052;4.242;2024-02-14T10:23:03;101506.47;;;10.99;100.00
36692;BME280;22678;52.052;4.242;2024-02-14T10:25:29;101508.22;;;10.99;100.00
36692;BME280;22678;52.052;4.242;2024-02-14T10:27:55;101511.72;;;10.96;100.00
36692;BME280;22678;52.052;4.242;2024-02-14T10:30:20;101509.09;;;10.95;100.00
36692;BME280;22678;52.052;4.242;2024-02-14T10:32:47;101516.13;;;10.97;100.00
36692;BME280;22678;52.052;4.242;2024-02-14T10:35:15;101519.63;;;10.99;100.00
36692;BME280;22678;52.052;4.242;2024-02-14T10:37:41;101510.00;;;10.98;100.00
36692;BME280;22678;52.052;4.242;2024-02-14T10:40:07;101510.88;;;10.99;100.00
36692;BME280;22678;52.052;4.242;2024-02-14T10:42:34;101501.19;;;10.96;100.00
36692;BME280;22678;52.052;4.242;2024-02-14T10:45:03;101495.94;;;10.99;100.00
36692;BME280;22678;52.052;4.242;2024-02-14T10:47:35;101495.06;;;11.07;100.00
36692;BME280;22678;52.052;4.242;2024-02-14T10:50:03;101480.16;;;10.96;100.00
36692;BME280;22678;52.052;4.242;2024-02-14T10:52:40;101486.31;;;11.00;100.00
36692;BME280;22678;52.052;4.242;2024-02-14T10:55:06;101492.44;;;11.07;100.00
36692;BME280;22678;52.052;4.242;2024-02-14T10:57:32;101481.91;;;11.03;100.00
36692;BME280;22678;52.052;4.242;2024-02-14T11:00:05;101508.22;;;11.16;100.00
36692;BME280;22678;52.052;4.242;2024-02-14T11:02:32;101494.19;;;11.14;100.00
36692;BME280;22678;52.052;4.242;2024-02-14T11:04:58;101501.22;;;11.18;100.00
36692;BME280;22678;52.052;4.242;2024-02-14T11:07:27;101489.78;;;11.13;100.00
36692;BME280;22678;52.052;4.242;2024-02-14T11:10:04;101501.22;;;11.21;100.00
36692;BME280;22678;52.052;4.242;2024-02-14T11:12:34;101493.31;;;11.18;100.00
36692;BME280;22678;52.052;4.242;2024-02-14T11:15:08;101480.16;;;11.05;100.00
36692;BME280;22678;52.052;4.242;2024-02-14T11:17:34;101510.88;;;11.22;100.00
36692;BME280;22678;52.052;4.242;2024-02-14T11:19:59;101502.09;;;11.15;100.00
36692;BME280;22678;52.052;4.242;2024-02-14T11:22:24;101491.56;;;11.15;100.00
36692;BME280;22678;52.052;4.242;2024-02-14T11:24:51;101493.31;;;11.18;100.00
36692;BME280;22678;52.052;4.242;2024-02-14T11:27:18;101488.94;;;11.15;100.00
36692;BME280;22678;52.052;4.242;2024-02-14T11:29:53;101489.81;;;11.22;100.00
36692;BME280;22678;52.052;4.242;2024-02-14T11:32:19;101488.06;;;11.21;100.00
36692;BME280;22678;52.052;4.242;2024-02-14T11:34:54;101487.19;;;11.22;100.00
36692;BME280;22678;52.052;4.242;2024-02-14T11:37:20;101488.91;;;11.26;100.00
36692;BME280;22678;52.052;4.242;2024-02-14T11:39:52;101486.31;;;11.31;100.00
36692;BME280;22678;52.052;4.242;2024-02-14T11:42:17;101476.66;;;11.28;100.00
36692;BME280;22678;52.052;4.242;2024-02-14T11:44:45;101486.31;;;11.34;100.00
36692;BME280;22678;52.052;4.242;2024-02-14T11:47:11;101470.47;;;11.28;100.00
36692;BME280;22678;52.052;4.242;2024-02-14T11:49:36;101467.88;;;11.32;100.00
36692;BME280;22678;52.052;4.242;2024-02-14T11:52:04;101475.75;;;11.37;100.00
36692;BME280;22678;52.052;4.242;2024-02-14T11:54:30;101473.13;;;11.35;100.00
36692;BME280;22678;52.052;4.242;2024-02-14T11:56:55;101491.53;;;11.43;100.00
36692;BME280;22678;52.052;4.242;2024-02-14T11:59:20;101471.38;;;11.31;100.00
36692;BME280;22678;52.052;4.242;2024-02-14T12:01:48;101492.41;;;11.42;100.00
36692;BME280;22678;52.052;4.242;2024-02-14T12:04:16;101495.03;;;11.48;100.00
36692;BME280;22678;52.052;4.242;2024-02-14T12:06:42;101494.16;;;11.51;100.00
36692;BME280;22678;52.052;4.242;2024-02-14T12:09:09;101480.13;;;11.49;100.00
36692;BME280;22678;52.052;4.242;2024-02-14T12:11:39;101482.75;;;11.55;100.00
36692;BME280;22678;52.052;4.242;2024-02-14T12:14:06;101470.44;;;11.51;100.00
36692;BME280;22678;52.052;4.242;2024-02-14T12:16:33;101470.44;;;11.54;100.00
36692;BME280;22678;52.052;4.242;2024-02-14T12:19:14;101472.19;;;11.58;100.00
36692;BME280;22678;52.052;4.242;2024-02-14T12:21:41;101471.34;;;11.56;100.00
36692;BME280;22678;52.052;4.242;2024-02-14T12:24:09;101476.59;;;11.56;100.00
36692;BME280;22678;52.052;4.242;2024-02-14T12:26:36;101480.09;;;11.55;100.00
36692;BME280;22678;52.052;4.242;2024-02-14T12:29:03;101479.22;;;11.59;100.00
36692;BME280;22678;52.052;4.242;2024-02-14T12:31:29;101478.34;;;11.63;100.00
36692;BME280;22678;52.052;4.242;2024-02-14T12:33:59;101488.88;;;11.63;100.00
36692;BME280;22678;52.052;4.242;2024-02-14T12:36:26;101473.94;;;11.62;100.00
36692;BME280;22678;52.052;4.242;2024-02-14T12:38:53;101485.34;;;11.64;100.00